createdAt,value
2023-02-17T00:02:16.636Z,-1.39
2023-02-17T00:04:44.566Z,-1.40
2023-02-17T00:07:12.763Z,-1.39
2023-02-17T00:09:40.729Z,-1.39
2023-02-17T00:12:08.592Z,-1.42
2023-02-17T00:14:36.775Z,-1.46
2023-02-17T00:17:04.644Z,-1.46
2023-02-17T00:19:32.712Z,-1.48
2023-02-17T00:22:01.904Z,-1.51
2023-02-17T00:24:31.214Z,-1.52
2023-02-17T00:26:59.451Z,-1.51
2023-02-17T00:29:27.656Z,-1.51
2023-02-17T00:31:55.913Z,-1.52
2023-02-17T00:34:24.825Z,-1.53
2023-02-17T00:36:53.314Z,-1.55
2023-02-17T00:39:21.289Z,-1.56
2023-02-17T00:41:50.147Z,-1.57
2023-02-17T00:44:19.474Z,-1.62
2023-02-17T00:46:47.552Z,-1.63
2023-02-17T00:49:17.664Z,-1.65
2023-02-17T00:51:46.250Z,-1.66
2023-02-17T00:54:14.418Z,-1.68
2023-02-17T00:56:43.419Z,-1.69
2023-02-17T00:59:11.588Z,-1.70
2023-02-17T01:01:39.706Z,-1.71
2023-02-17T01:04:07.838Z,-1.73
2023-02-17T01:06:36.736Z,-1.73
2023-02-17T01:09:06.024Z,-1.76
2023-02-17T01:11:35.227Z,-1.79
2023-02-17T01:14:06.416Z,-1.81
2023-02-17T01:16:36.284Z,-1.82
2023-02-17T01:19:05.482Z,-1.82
2023-02-17T01:21:33.962Z,-1.83
2023-02-17T01:24:04.078Z,-1.86
2023-02-17T01:26:33.390Z,-1.87
2023-02-17T01:29:03.918Z,-1.87
2023-02-17T01:31:32.251Z,-1.88
2023-02-17T01:34:01.512Z,-1.87
2023-02-17T01:36:29.992Z,-1.88
2023-02-17T01:38:58.145Z,-1.88
2023-02-17T01:41:27.247Z,-1.88
2023-02-17T01:44:05.879Z,-1.89
2023-02-17T01:46:34.706Z,-1.88
2023-02-17T01:49:12.850Z,-1.88
2023-02-17T01:51:41.328Z,-1.89
2023-02-17T01:54:13.087Z,-1.91
2023-02-17T01:56:43.831Z,-1.93
2023-02-17T01:59:16.481Z,-1.93
2023-02-17T02:01:45.048Z,-1.94
2023-02-17T02:04:15.079Z,-1.97
2023-02-17T02:06:43.999Z,-1.99
2023-02-17T02:09:36.745Z,-2.01
2023-02-17T02:12:16.899Z,-2.03
2023-02-17T02:14:46.708Z,-2.05
2023-02-17T02:17:17.752Z,-2.04
2023-02-17T02:19:54.943Z,-2.05
2023-02-17T02:22:32.061Z,-2.05
2023-02-17T02:25:03.078Z,-2.07
2023-02-17T02:27:50.206Z,-2.09
2023-02-17T02:30:37.205Z,-2.09
2023-02-17T02:33:09.163Z,-2.10
2023-02-17T02:35:49.423Z,-2.13
2023-02-17T02:38:17.403Z,-2.12
2023-02-17T02:40:50.386Z,-2.15
2023-02-17T02:43:18.453Z,-2.16
2023-02-17T02:45:46.433Z,-2.16
2023-02-17T02:48:14.394Z,-2.16
2023-02-17T02:50:45.283Z,-2.14
2023-02-17T02:53:16.268Z,-2.14
2023-02-17T02:55:51.645Z,-2.14
2023-02-17T02:58:19.989Z,-2.12
2023-02-17T03:00:54.163Z,-2.08
2023-02-17T03:03:45.831Z,-2.04
2023-02-17T03:06:31.387Z,-2.00
2023-02-17T03:09:04.598Z,-1.94
2023-02-17T03:11:32.612Z,-1.91
2023-02-17T03:14:01.868Z,-1.89
2023-02-17T03:16:30.397Z,-1.89
2023-02-17T03:18:58.626Z,-1.88
2023-02-17T03:21:29.875Z,-1.87
2023-02-17T03:23:57.948Z,-1.85
2023-02-17T03:26:25.762Z,-1.81
2023-02-17T03:28:53.789Z,-1.80
2023-02-17T03:31:21.846Z,-1.78
2023-02-17T03:33:50.129Z,-1.76
2023-02-17T03:36:18.073Z,-1.77
2023-02-17T03:38:45.987Z,-1.78
2023-02-17T03:41:13.942Z,-1.77
2023-02-17T03:43:41.903Z,-1.75
2023-02-17T03:46:17.187Z,-1.72
2023-02-17T03:48:45.194Z,-1.73
2023-02-17T03:51:15.954Z,-1.75
2023-02-17T03:53:44.743Z,-1.77
2023-02-17T03:56:13.433Z,-1.78
2023-02-17T03:58:41.591Z,-1.83
2023-02-17T04:01:10.704Z,-1.88
2023-02-17T04:03:39.132Z,-1.90
2023-02-17T04:06:08.007Z,-1.92
2023-02-17T04:08:36.850Z,-1.97
2023-02-17T04:11:05.975Z,-1.99
2023-02-17T04:13:34.125Z,-2.01
2023-02-17T04:16:02.390Z,-2.04
2023-02-17T04:18:31.812Z,-2.09
2023-02-17T04:20:59.780Z,-2.13
2023-02-17T04:23:27.840Z,-2.19
2023-02-17T04:25:55.817Z,-2.23
2023-02-17T04:28:23.780Z,-2.26
2023-02-17T04:30:51.796Z,-2.30
2023-02-17T04:33:19.815Z,-2.34
2023-02-17T04:35:47.903Z,-2.36
2023-02-17T04:38:15.966Z,-2.38
2023-02-17T04:40:43.930Z,-2.41
2023-02-17T04:43:11.896Z,-2.44
2023-02-17T04:45:39.873Z,-2.44
2023-02-17T04:48:08.048Z,-2.43
2023-02-17T04:50:36.009Z,-2.44
2023-02-17T04:53:03.987Z,-2.45
2023-02-17T04:55:33.592Z,-2.46
2023-02-17T04:58:01.561Z,-2.47
2023-02-17T05:00:29.403Z,-2.49
2023-02-17T05:02:57.371Z,-2.53
2023-02-17T05:05:26.161Z,-2.56
2023-02-17T05:07:54.258Z,-2.57
2023-02-17T05:10:23.975Z,-2.61
2023-02-17T05:12:52.577Z,-2.63
2023-02-17T05:15:20.517Z,-2.65
2023-02-17T05:17:48.489Z,-2.67
2023-02-17T05:20:16.458Z,-2.69
2023-02-17T05:22:44.427Z,-2.70
2023-02-17T05:25:12.403Z,-2.72
2023-02-17T05:27:40.393Z,-2.76
2023-02-17T05:30:08.554Z,-2.80
2023-02-17T05:32:36.509Z,-2.83
2023-02-17T05:35:04.579Z,-2.83
2023-02-17T05:37:32.561Z,-2.82
2023-02-17T05:40:00.627Z,-2.81
2023-02-17T05:42:29.096Z,-2.80
2023-02-17T05:44:57.288Z,-2.80
2023-02-17T05:47:27.356Z,-2.78
2023-02-17T05:49:55.879Z,-2.76
2023-02-17T05:52:23.854Z,-2.74
2023-02-17T05:54:52.225Z,-2.71
2023-02-17T05:57:20.403Z,-2.70
2023-02-17T05:59:48.366Z,-2.68
2023-02-17T06:02:16.343Z,-2.65
2023-02-17T06:04:44.588Z,-2.59
2023-02-17T06:07:12.692Z,-2.55
2023-02-17T06:09:40.566Z,-2.50
2023-02-17T06:12:08.524Z,-2.45
2023-02-17T06:14:36.502Z,-2.39
2023-02-17T06:17:04.389Z,-2.32
2023-02-17T06:19:32.640Z,-2.25
2023-02-17T06:22:00.614Z,-2.21
2023-02-17T06:24:28.574Z,-2.15
2023-02-17T06:26:56.647Z,-2.09
2023-02-17T06:29:24.662Z,-2.02
2023-02-17T06:31:52.707Z,-1.95
2023-02-17T06:34:20.963Z,-1.88
2023-02-17T06:36:49.040Z,-1.79
2023-02-17T06:39:17.010Z,-1.69
2023-02-17T06:41:45.163Z,-1.59
2023-02-17T06:44:13.146Z,-1.50
2023-02-17T06:46:41.116Z,-1.42
2023-02-17T06:49:09.082Z,-1.30
2023-02-17T06:51:37.359Z,-1.16
2023-02-17T06:54:05.427Z,-1.03
2023-02-17T06:56:33.398Z,-0.90
2023-02-17T06:59:01.776Z,-0.79
2023-02-17T07:01:30.154Z,-0.68
2023-02-17T07:03:58.275Z,-0.56
2023-02-17T07:06:26.718Z,-0.43
2023-02-17T07:08:54.884Z,-0.30
2023-02-17T07:11:23.269Z,-0.15
2023-02-17T07:13:51.260Z,-0.02
2023-02-17T07:16:19.184Z,0.12
2023-02-17T07:18:47.222Z,0.25
2023-02-17T07:21:15.139Z,0.34
2023-02-17T07:23:43.109Z,0.42
2023-02-17T07:26:12.106Z,0.55
2023-02-17T07:28:41.111Z,0.70
2023-02-17T07:31:13.182Z,0.86
2023-02-17T07:33:41.846Z,1.03
2023-02-17T07:36:11.200Z,1.19
2023-02-17T07:38:39.739Z,1.33
2023-02-17T07:41:09.142Z,1.49
2023-02-17T07:43:37.322Z,1.56
2023-02-17T07:46:05.970Z,1.68
2023-02-17T07:48:34.685Z,1.80
2023-02-17T07:51:10.429Z,1.97
2023-02-17T07:53:38.703Z,2.17
2023-02-17T07:56:07.866Z,2.33
2023-02-17T07:58:37.616Z,2.47
2023-02-17T08:01:13.181Z,2.60
2023-02-17T08:03:41.485Z,2.71
2023-02-17T08:06:10.706Z,2.80
2023-02-17T08:08:57.337Z,2.74
2023-02-17T08:11:45.405Z,2.67
2023-02-17T08:14:14.269Z,2.51
2023-02-17T08:16:42.264Z,2.46
2023-02-17T08:19:10.219Z,2.33
2023-02-17T08:21:38.488Z,2.20
2023-02-17T08:24:07.117Z,2.14
2023-02-17T08:26:35.189Z,2.10
2023-02-17T08:29:03.659Z,2.07
2023-02-17T08:31:33.384Z,2.14
2023-02-17T08:34:02.947Z,2.20
2023-02-17T08:36:31.522Z,2.29
2023-02-17T08:38:59.498Z,2.33
2023-02-17T08:41:29.765Z,2.36
2023-02-17T08:43:59.459Z,2.38
2023-02-17T08:46:28.276Z,2.34
2023-02-17T08:48:56.722Z,2.40
2023-02-17T08:51:26.316Z,2.48
2023-02-17T08:53:55.686Z,2.55
2023-02-17T08:56:24.501Z,2.59
2023-02-17T08:58:52.932Z,2.60
2023-02-17T09:01:21.163Z,2.61
2023-02-17T09:03:50.065Z,2.70
2023-02-17T09:06:18.650Z,2.83
2023-02-17T09:08:46.701Z,2.87
2023-02-17T09:11:17.217Z,3.00
2023-02-17T09:13:45.657Z,3.06
2023-02-17T09:16:13.852Z,3.07
2023-02-17T09:18:42.189Z,3.03
2023-02-17T09:21:11.620Z,3.04
2023-02-17T09:23:40.374Z,3.09
2023-02-17T09:26:10.337Z,3.11
2023-02-17T09:28:38.998Z,3.11
2023-02-17T09:31:14.325Z,3.12
2023-02-17T09:33:43.197Z,3.19
2023-02-17T09:36:13.516Z,3.29
2023-02-17T09:38:42.148Z,3.34
2023-02-17T09:41:18.288Z,3.46
2023-02-17T09:43:46.230Z,3.80
2023-02-17T09:46:36.011Z,4.22
2023-02-17T09:49:09.004Z,4.50
2023-02-17T09:51:45.259Z,4.91
2023-02-17T09:54:13.237Z,5.57
2023-02-17T09:56:43.165Z,6.31
2023-02-17T09:59:16.657Z,6.94
2023-02-17T10:01:46.367Z,7.65
2023-02-17T10:04:17.484Z,8.34
2023-02-17T10:06:47.199Z,9.05
2023-02-17T10:09:37.304Z,9.71
2023-02-17T10:12:14.082Z,10.46
2023-02-17T10:14:46.349Z,11.11
2023-02-17T10:17:34.595Z,11.71
2023-02-17T10:20:11.451Z,12.26
2023-02-17T10:22:42.931Z,12.73
2023-02-17T10:25:15.432Z,13.11
2023-02-17T10:27:47.589Z,13.49
2023-02-17T10:30:23.660Z,13.91
2023-02-17T10:33:10.377Z,14.31
2023-02-17T10:36:10.553Z,14.68
2023-02-17T10:38:47.714Z,15.06
2023-02-17T10:41:17.950Z,15.30
2023-02-17T10:43:46.322Z,15.06
2023-02-17T10:46:16.805Z,15.17
2023-02-17T10:48:47.279Z,15.31
2023-02-17T10:51:16.676Z,15.78
2023-02-17T10:53:47.405Z,16.05
2023-02-17T10:56:18.458Z,16.29
2023-02-17T10:58:46.425Z,16.52
2023-02-17T11:01:14.392Z,16.87
2023-02-17T11:03:42.614Z,17.15
2023-02-17T11:06:16.622Z,17.45
2023-02-17T11:08:50.841Z,17.72
2023-02-17T11:11:18.765Z,17.96
2023-02-17T11:14:00.148Z,17.98
2023-02-17T11:16:34.110Z,17.74
2023-02-17T11:19:02.744Z,17.54
2023-02-17T11:21:30.934Z,17.15
2023-02-17T11:24:01.238Z,16.66
2023-02-17T11:26:31.358Z,16.83
2023-02-17T11:29:16.425Z,16.96
2023-02-17T11:31:54.516Z,17.12
2023-02-17T11:34:24.345Z,17.12
2023-02-17T11:37:10.955Z,17.14
2023-02-17T11:39:43.267Z,16.61
2023-02-17T11:42:24.706Z,16.53
2023-02-17T11:44:54.119Z,16.58
2023-02-17T11:47:40.684Z,16.29
2023-02-17T11:50:08.589Z,16.31
2023-02-17T11:52:36.454Z,16.67
2023-02-17T11:55:13.965Z,16.39
2023-02-17T11:57:47.857Z,16.65
2023-02-17T12:00:16.349Z,16.75
2023-02-17T12:03:15.219Z,16.74
2023-02-17T12:06:02.040Z,17.18
2023-02-17T12:08:35.846Z,17.61
2023-02-17T12:11:15.704Z,17.77
2023-02-17T12:14:04.873Z,17.13
2023-02-17T12:16:45.166Z,16.03
2023-02-17T12:19:31.927Z,15.08
2023-02-17T12:21:59.950Z,14.79
2023-02-17T12:24:47.328Z,14.20
2023-02-17T12:27:18.061Z,13.36
2023-02-17T12:29:45.990Z,12.86
2023-02-17T12:32:20.697Z,12.31
2023-02-17T12:34:53.226Z,11.61
2023-02-17T12:37:23.561Z,11.32
2023-02-17T12:40:11.789Z,10.93
2023-02-17T12:42:43.762Z,10.50
2023-02-17T12:45:14.431Z,10.43
2023-02-17T12:47:42.367Z,10.47
2023-02-17T12:50:21.482Z,10.45
2023-02-17T12:52:52.326Z,10.44
2023-02-17T12:55:26.930Z,10.46
2023-02-17T12:58:07.426Z,10.46
2023-02-17T13:00:38.147Z,10.35
2023-02-17T13:03:06.447Z,10.20
2023-02-17T13:05:40.439Z,10.19
2023-02-17T13:08:28.992Z,10.18
2023-02-17T13:11:01.777Z,10.19
2023-02-17T13:13:31.272Z,10.19
2023-02-17T13:16:07.826Z,10.19
2023-02-17T13:18:37.556Z,10.14
2023-02-17T13:21:17.501Z,10.12
2023-02-17T13:23:48.113Z,10.05
2023-02-17T13:26:24.892Z,10.02
2023-02-17T13:28:53.821Z,9.90
2023-02-17T13:31:26.769Z,9.87
2023-02-17T13:33:56.609Z,9.85
2023-02-17T13:36:27.271Z,9.86
2023-02-17T13:39:18.237Z,9.84
2023-02-17T13:41:47.856Z,9.81
2023-02-17T13:44:38.656Z,9.77
2023-02-17T13:47:12.921Z,9.67
2023-02-17T13:49:40.939Z,9.58
2023-02-17T13:52:28.987Z,9.47
2023-02-17T13:54:58.491Z,9.36
2023-02-17T13:57:30.549Z,9.26
2023-02-17T14:00:09.648Z,9.17
2023-02-17T14:02:47.476Z,9.09
2023-02-17T14:05:20.052Z,9.02
2023-02-17T14:07:49.254Z,8.94
2023-02-17T14:10:19.076Z,8.84
2023-02-17T14:12:49.083Z,8.78
2023-02-17T14:15:18.287Z,8.69
2023-02-17T14:17:46.553Z,8.61
2023-02-17T14:20:44.029Z,8.50
2023-02-17T14:23:12.925Z,8.43
2023-02-17T14:25:42.003Z,8.38
2023-02-17T14:28:20.718Z,8.33
2023-02-17T14:30:49.470Z,8.27
2023-02-17T14:33:18.008Z,8.25
2023-02-17T14:36:00.193Z,8.21
2023-02-17T14:38:32.219Z,8.16
2023-02-17T14:41:01.334Z,8.11
2023-02-17T14:43:29.247Z,8.06
2023-02-17T14:45:57.599Z,7.97
2023-02-17T14:48:27.665Z,7.92
2023-02-17T14:50:56.928Z,7.89
2023-02-17T14:53:26.988Z,7.85
2023-02-17T14:56:04.643Z,7.80
2023-02-17T14:58:32.886Z,7.75
2023-02-17T15:01:00.789Z,7.72
2023-02-17T15:03:28.750Z,7.67
2023-02-17T15:05:56.693Z,7.63
2023-02-17T15:08:30.075Z,7.59
2023-02-17T15:10:58.028Z,7.57
2023-02-17T15:13:26.600Z,7.54
2023-02-17T15:15:54.522Z,7.49
2023-02-17T15:18:22.445Z,7.45
2023-02-17T15:20:51.466Z,7.42
2023-02-17T15:23:20.957Z,7.39
2023-02-17T15:25:48.981Z,7.34
2023-02-17T15:28:18.489Z,7.29
2023-02-17T15:30:48.898Z,7.26
2023-02-17T15:33:17.466Z,7.22
2023-02-17T15:35:46.210Z,7.17
2023-02-17T15:38:14.248Z,7.11
2023-02-17T15:40:42.437Z,7.06
2023-02-17T15:43:13.675Z,7.01
2023-02-17T15:45:41.841Z,6.96
2023-02-17T15:48:18.628Z,6.87
2023-02-17T15:50:46.551Z,6.78
2023-02-17T15:53:14.442Z,6.71
2023-02-17T15:55:42.644Z,6.67
2023-02-17T15:58:14.286Z,6.62
2023-02-17T16:00:43.699Z,6.58
2023-02-17T16:03:13.733Z,6.57
2023-02-17T16:05:41.864Z,6.56
2023-02-17T16:08:09.849Z,6.54
2023-02-17T16:10:40.316Z,6.53
2023-02-17T16:13:12.844Z,6.51
2023-02-17T16:15:41.441Z,6.49
2023-02-17T16:18:22.807Z,6.48
2023-02-17T16:20:51.292Z,6.46
2023-02-17T16:23:19.262Z,6.43
2023-02-17T16:25:48.197Z,6.37
2023-02-17T16:28:20.219Z,6.29
2023-02-17T16:30:49.563Z,6.24
2023-02-17T16:33:18.238Z,6.20
2023-02-17T16:35:46.396Z,6.19
2023-02-17T16:38:22.977Z,6.17
2023-02-17T16:40:52.470Z,6.15
2023-02-17T16:43:21.761Z,6.13
2023-02-17T16:45:52.640Z,6.10
2023-02-17T16:48:23.229Z,6.08
2023-02-17T16:50:51.503Z,6.05
2023-02-17T16:53:20.089Z,6.01
2023-02-17T16:55:48.570Z,6.01
2023-02-17T16:58:20.531Z,5.99
2023-02-17T17:00:49.621Z,5.99
2023-02-17T17:03:18.009Z,5.97
2023-02-17T17:05:46.029Z,5.95
2023-02-17T17:08:16.292Z,5.92
2023-02-17T17:10:45.393Z,5.92
2023-02-17T17:13:13.766Z,5.90
2023-02-17T17:15:43.277Z,5.89
2023-02-17T17:18:18.311Z,5.89
2023-02-17T17:20:46.274Z,5.87
2023-02-17T17:23:15.131Z,5.83
2023-02-17T17:25:45.284Z,5.78
2023-02-17T17:28:13.776Z,5.76
2023-02-17T17:30:41.749Z,5.75
2023-02-17T17:33:09.781Z,5.72
2023-02-17T17:35:37.846Z,5.70
2023-02-17T17:38:05.963Z,5.67
2023-02-17T17:40:48.576Z,5.66
2023-02-17T17:43:20.733Z,5.63
2023-02-17T17:45:49.467Z,5.61
2023-02-17T17:48:17.796Z,5.59
2023-02-17T17:50:46.174Z,5.56
2023-02-17T17:53:14.144Z,5.53
2023-02-17T17:55:42.114Z,5.52
2023-02-17T17:58:10.293Z,5.50
2023-02-17T18:00:38.362Z,5.48
2023-02-17T18:03:06.227Z,5.45
2023-02-17T18:05:35.616Z,5.38
2023-02-17T18:08:03.817Z,5.35
2023-02-17T18:10:32.592Z,5.29
2023-02-17T18:13:00.478Z,5.23
2023-02-17T18:15:28.417Z,5.18
2023-02-17T18:17:56.709Z,5.15
2023-02-17T18:20:24.891Z,5.13
2023-02-17T18:22:52.933Z,5.12
2023-02-17T18:25:21.537Z,5.11
2023-02-17T18:27:49.885Z,5.10
2023-02-17T18:30:19.233Z,5.08
2023-02-17T18:32:47.612Z,5.06
2023-02-17T18:35:16.284Z,5.03
2023-02-17T18:37:45.471Z,5.02
2023-02-17T18:40:15.192Z,5.01
2023-02-17T18:42:46.717Z,5.00
2023-02-17T18:45:15.763Z,5.00
2023-02-17T18:47:44.019Z,4.99
2023-02-17T18:50:12.596Z,4.98
2023-02-17T18:52:41.286Z,4.93
2023-02-17T18:55:09.767Z,4.84
2023-02-17T18:57:37.734Z,4.80
2023-02-17T19:00:09.387Z,4.79
2023-02-17T19:02:38.070Z,4.78
2023-02-17T19:05:08.092Z,4.76
2023-02-17T19:07:36.292Z,4.73
2023-02-17T19:10:05.148Z,4.73
2023-02-17T19:12:34.272Z,4.73
2023-02-17T19:15:02.387Z,4.73
2023-02-17T19:17:30.389Z,4.74
2023-02-17T19:19:58.691Z,4.73
2023-02-17T19:22:26.664Z,4.73
2023-02-17T19:24:54.930Z,4.71
2023-02-17T19:27:22.984Z,4.67
2023-02-17T19:29:50.949Z,4.65
2023-02-17T19:32:18.927Z,4.64
2023-02-17T19:34:46.893Z,4.61
2023-02-17T19:37:15.369Z,4.58
2023-02-17T19:39:43.207Z,4.58
2023-02-17T19:42:13.576Z,4.55
2023-02-17T19:44:41.430Z,4.46
2023-02-17T19:47:09.506Z,4.48
2023-02-17T19:49:37.402Z,4.50
2023-02-17T19:52:06.340Z,4.52
2023-02-17T19:54:37.176Z,4.51
2023-02-17T19:57:05.169Z,4.50
2023-02-17T19:59:33.890Z,4.48
2023-02-17T20:02:01.933Z,4.47
2023-02-17T20:04:29.904Z,4.47
2023-02-17T20:06:58.717Z,4.47
2023-02-17T20:09:26.675Z,4.47
2023-02-17T20:11:54.783Z,4.46
2023-02-17T20:14:22.861Z,4.44
2023-02-17T20:16:53.341Z,4.43
2023-02-17T20:19:21.713Z,4.41
2023-02-17T20:21:49.620Z,4.40
2023-02-17T20:24:17.661Z,4.39
2023-02-17T20:26:46.650Z,4.35
2023-02-17T20:29:14.852Z,4.35
2023-02-17T20:31:43.192Z,4.34
2023-02-17T20:34:20.896Z,4.33
2023-02-17T20:36:48.730Z,4.34
2023-02-17T20:39:16.730Z,4.35
2023-02-17T20:41:44.592Z,4.34
2023-02-17T20:44:12.779Z,4.35
2023-02-17T20:46:42.639Z,4.35
2023-02-17T20:49:11.197Z,4.35
2023-02-17T20:51:39.133Z,4.34
2023-02-17T20:54:07.130Z,4.33
2023-02-17T20:56:37.422Z,4.34
2023-02-17T20:59:06.320Z,4.34
2023-02-17T21:01:34.653Z,4.34
2023-02-17T21:04:02.906Z,4.35
2023-02-17T21:06:32.420Z,4.35
2023-02-17T21:09:01.884Z,4.33
2023-02-17T21:11:30.391Z,4.33
2023-02-17T21:13:58.297Z,4.34
2023-02-17T21:16:27.134Z,4.36
2023-02-17T21:18:55.019Z,4.38
2023-02-17T21:21:22.976Z,4.42
2023-02-17T21:23:51.198Z,4.43
2023-02-17T21:26:19.308Z,4.43
2023-02-17T21:28:47.384Z,4.44
2023-02-17T21:31:16.211Z,4.46
2023-02-17T21:33:44.338Z,4.45
2023-02-17T21:36:13.663Z,4.45
2023-02-17T21:38:41.638Z,4.44
2023-02-17T21:41:14.800Z,4.44
2023-02-17T21:44:01.205Z,4.42
2023-02-17T21:46:30.376Z,4.42
2023-02-17T21:48:59.078Z,4.43
2023-02-17T21:51:27.786Z,4.44
2023-02-17T21:53:56.338Z,4.43
2023-02-17T21:56:24.534Z,4.45
2023-02-17T21:58:53.662Z,4.46
2023-02-17T22:01:23.516Z,4.47
2023-02-17T22:03:51.950Z,4.46
2023-02-17T22:06:24.713Z,4.49
2023-02-17T22:08:53.174Z,4.49
2023-02-17T22:11:23.096Z,4.50
2023-02-17T22:13:54.134Z,4.48
2023-02-17T22:16:21.991Z,4.51
2023-02-17T22:18:50.079Z,4.53
2023-02-17T22:21:18.153Z,4.50
2023-02-17T22:23:46.252Z,4.46
2023-02-17T22:26:22.175Z,4.43
2023-02-17T22:28:50.459Z,4.42
2023-02-17T22:31:20.262Z,4.37
2023-02-17T22:33:48.855Z,4.33
2023-02-17T22:36:18.359Z,4.30
2023-02-17T22:38:46.333Z,4.29
2023-02-17T22:41:15.629Z,4.23
2023-02-17T22:43:44.629Z,4.19
2023-02-17T22:46:16.497Z,4.15
2023-02-17T22:48:45.369Z,4.10
2023-02-17T22:51:16.015Z,4.05
2023-02-17T22:53:44.379Z,3.99
2023-02-17T22:56:12.556Z,3.95
2023-02-17T22:58:40.930Z,3.90
2023-02-17T23:01:11.765Z,3.87
2023-02-17T23:03:39.989Z,3.86
2023-02-17T23:06:09.400Z,3.84
2023-02-17T23:08:38.257Z,3.82
2023-02-17T23:11:06.922Z,3.81
2023-02-17T23:13:35.309Z,3.77
2023-02-17T23:16:03.686Z,3.73
2023-02-17T23:18:32.481Z,3.71
2023-02-17T23:21:06.130Z,3.70
2023-02-17T23:23:34.351Z,3.69
2023-02-17T23:26:02.327Z,3.71
2023-02-17T23:28:31.018Z,3.72
2023-02-17T23:30:59.125Z,3.72
2023-02-17T23:33:27.358Z,3.73
2023-02-17T23:35:55.330Z,3.74
2023-02-17T23:38:23.312Z,3.71
2023-02-17T23:40:52.092Z,3.69
2023-02-17T23:43:20.163Z,3.69
2023-02-17T23:45:48.908Z,3.68
2023-02-17T23:48:17.083Z,3.67
2023-02-17T23:50:44.869Z,3.66
2023-02-17T23:53:12.654Z,3.64
2023-02-17T23:55:40.721Z,3.62
2023-02-17T23:58:08.584Z,3.61
